createdAt,value
2023-01-30T00:01:56.532Z,51.80
2023-01-30T00:03:00.318Z,54.80
2023-01-30T00:04:04.069Z,41.60
2023-01-30T00:05:08.622Z,53.80
2023-01-30T00:06:12.915Z,50.80
2023-01-30T00:07:16.726Z,59.60
2023-01-30T00:08:20.576Z,54.10
2023-01-30T00:09:24.201Z,54.10
2023-01-30T00:10:27.893Z,57.20
2023-01-30T00:11:33.188Z,57.30
2023-01-30T00:12:36.771Z,56.10
2023-01-30T00:13:42.108Z,63.20
2023-01-30T00:14:45.790Z,58.60
2023-01-30T00:15:49.493Z,57.60
2023-01-30T00:16:53.031Z,55.70
2023-01-30T00:17:56.671Z,58.20
2023-01-30T00:19:00.324Z,58.30
2023-01-30T00:20:04.673Z,55.90
2023-01-30T00:21:11.111Z,53.80
2023-01-30T00:22:14.888Z,50.70
2023-01-30T00:23:18.746Z,61.50
2023-01-30T00:24:23.020Z,55.80
2023-01-30T00:25:27.664Z,54.40
2023-01-30T00:26:31.573Z,53.10
2023-01-30T00:27:35.350Z,56.60
2023-01-30T00:28:40.723Z,41.80
2023-01-30T00:29:54.369Z,47.50
2023-01-30T00:31:08.409Z,53.00
2023-01-30T00:32:12.031Z,59.20
2023-01-30T00:33:18.373Z,48.50
2023-01-30T00:34:22.169Z,58.70
2023-01-30T00:35:28.700Z,51.60
2023-01-30T00:36:32.446Z,60.40
2023-01-30T00:37:36.032Z,51.10
2023-01-30T00:38:39.768Z,53.10
2023-01-30T00:39:44.018Z,62.90
2023-01-30T00:40:48.634Z,50.70
2023-01-30T00:42:10.705Z,49.50
2023-01-30T00:43:35.326Z,24.60
2023-01-30T00:44:57.307Z,51.20
2023-01-30T00:46:21.660Z,42.40
2023-01-30T00:47:26.956Z,49.50
2023-01-30T00:48:31.953Z,56.10
2023-01-30T00:49:37.116Z,49.50
2023-01-30T00:50:43.669Z,49.10
2023-01-30T00:51:48.813Z,42.20
2023-01-30T00:52:52.530Z,53.80
2023-01-30T00:53:56.161Z,53.10
2023-01-30T00:55:00.100Z,53.90
2023-01-30T00:56:04.229Z,52.00
2023-01-30T00:57:08.142Z,45.60
2023-01-30T00:58:12.956Z,57.80
2023-01-30T00:59:16.560Z,55.30
2023-01-30T01:00:23.259Z,42.00
2023-01-30T01:01:27.874Z,52.30
2023-01-30T01:02:31.837Z,53.90
2023-01-30T01:03:35.778Z,57.00
2023-01-30T01:04:45.389Z,68.00
2023-01-30T01:05:49.044Z,52.50
2023-01-30T01:06:52.726Z,54.90
2023-01-30T01:07:56.773Z,56.40
2023-01-30T01:09:00.610Z,57.40
2023-01-30T01:10:04.636Z,51.10
2023-01-30T01:11:08.468Z,54.20
2023-01-30T01:12:12.157Z,41.10
2023-01-30T01:13:15.744Z,55.90
2023-01-30T01:14:19.300Z,53.80
2023-01-30T01:15:23.931Z,58.90
2023-01-30T01:17:31.534Z,53.00
2023-01-30T01:18:35.336Z,43.00
2023-01-30T01:19:38.945Z,48.10
2023-01-30T01:20:43.627Z,53.50
2023-01-30T01:21:47.492Z,50.20
2023-01-30T01:22:55.609Z,56.20
2023-01-30T01:24:00.177Z,54.80
2023-01-30T01:26:07.718Z,34.90
2023-01-30T01:27:11.551Z,51.30
2023-01-30T01:28:21.523Z,44.70
2023-01-30T01:29:25.173Z,45.70
2023-01-30T01:30:28.981Z,51.40
2023-01-30T01:31:32.671Z,48.40
2023-01-30T01:32:36.496Z,56.40
2023-01-30T01:33:40.448Z,50.70
2023-01-30T01:34:44.137Z,46.90
2023-01-30T01:35:49.521Z,47.10
2023-01-30T01:36:54.174Z,54.70
2023-01-30T01:37:58.427Z,59.40
2023-01-30T01:39:03.464Z,56.20
2023-01-30T01:40:27.723Z,63.30
2023-01-30T01:41:31.452Z,53.50
2023-01-30T01:42:37.656Z,60.20
2023-01-30T01:44:00.419Z,55.30
2023-01-30T01:45:16.762Z,47.40
2023-01-30T01:46:26.538Z,60.10
2023-01-30T01:47:33.305Z,46.70
2023-01-30T01:48:42.086Z,49.10
2023-01-30T01:49:45.775Z,48.20
2023-01-30T01:51:16.442Z,65.90
2023-01-30T01:52:21.520Z,47.20
2023-01-30T01:53:30.132Z,53.20
2023-01-30T01:54:36.407Z,59.70
2023-01-30T01:55:43.604Z,53.00
2023-01-30T01:56:49.581Z,48.80
2023-01-30T01:58:07.753Z,52.50
2023-01-30T01:59:36.545Z,52.60
2023-01-30T02:00:40.296Z,50.70
2023-01-30T02:01:44.027Z,44.20
2023-01-30T02:03:05.447Z,59.00
2023-01-30T02:04:11.087Z,64.80
2023-01-30T02:05:17.394Z,55.10
2023-01-30T02:06:22.720Z,40.30
2023-01-30T02:07:29.293Z,52.50
2023-01-30T02:08:37.216Z,49.50
2023-01-30T02:09:40.920Z,58.80
2023-01-30T02:11:00.103Z,63.10
2023-01-30T02:12:04.611Z,46.90
2023-01-30T02:13:08.878Z,46.40
2023-01-30T02:14:14.434Z,59.70
2023-01-30T02:15:19.970Z,60.90
2023-01-30T02:16:23.857Z,52.70
2023-01-30T02:17:27.657Z,48.80
2023-01-30T02:18:34.545Z,56.10
2023-01-30T02:19:50.546Z,52.60
2023-01-30T02:21:40.868Z,50.70
2023-01-30T02:23:22.054Z,53.40
2023-01-30T02:24:40.088Z,48.40
2023-01-30T02:25:56.481Z,42.80
2023-01-30T02:27:20.437Z,39.80
2023-01-30T02:28:40.867Z,42.10
2023-01-30T02:30:19.546Z,54.30
2023-01-30T02:31:40.913Z,51.20
2023-01-30T02:33:03.159Z,49.30
2023-01-30T02:34:17.441Z,50.20
2023-01-30T02:35:49.961Z,40.10
2023-01-30T02:37:17.571Z,55.90
2023-01-30T02:38:36.487Z,53.40
2023-01-30T02:39:54.383Z,42.20
2023-01-30T02:41:13.383Z,46.20
2023-01-30T02:42:43.235Z,41.40
2023-01-30T02:44:48.447Z,37.00
2023-01-30T02:46:04.813Z,38.30
2023-01-30T02:47:15.135Z,39.80
2023-01-30T02:48:35.148Z,39.90
2023-01-30T02:49:43.491Z,50.80
2023-01-30T02:50:53.922Z,27.10
2023-01-30T02:52:00.285Z,45.30
2023-01-30T02:53:08.000Z,50.80
2023-01-30T02:54:13.234Z,49.80
2023-01-30T02:55:25.135Z,55.90
2023-01-30T02:56:28.796Z,53.20
2023-01-30T02:57:32.462Z,53.70
2023-01-30T02:58:44.860Z,42.70
2023-01-30T02:59:59.285Z,52.50
2023-01-30T03:01:33.045Z,44.80
2023-01-30T03:03:10.603Z,51.10
2023-01-30T03:04:52.302Z,56.80
2023-01-30T03:06:14.548Z,41.80
2023-01-30T03:07:42.418Z,46.10
2023-01-30T03:09:03.528Z,53.10
2023-01-30T03:10:09.707Z,44.20
2023-01-30T03:11:17.842Z,49.60
2023-01-30T03:12:54.686Z,40.30
2023-01-30T03:14:26.080Z,47.80
2023-01-30T03:15:35.373Z,42.80
2023-01-30T03:16:40.666Z,58.40
2023-01-30T03:17:47.303Z,60.80
2023-01-30T03:18:52.828Z,56.20
2023-01-30T03:19:56.746Z,44.00
2023-01-30T03:21:07.123Z,36.30
2023-01-30T03:22:10.888Z,51.60
2023-01-30T03:23:14.604Z,55.70
2023-01-30T03:24:18.328Z,59.90
2023-01-30T03:25:26.533Z,43.10
2023-01-30T03:26:36.088Z,45.50
2023-01-30T03:27:40.364Z,60.70
2023-01-30T03:28:46.443Z,50.10
2023-01-30T03:29:50.413Z,64.10
2023-01-30T03:30:54.103Z,54.90
2023-01-30T03:31:57.946Z,50.80
2023-01-30T03:33:01.739Z,57.40
2023-01-30T03:34:05.486Z,57.20
2023-01-30T03:35:09.691Z,54.30
2023-01-30T03:36:13.510Z,59.60
2023-01-30T03:37:17.099Z,37.20
2023-01-30T03:38:21.080Z,54.40
2023-01-30T03:39:27.027Z,53.20
2023-01-30T03:40:31.516Z,46.90
2023-01-30T03:41:35.286Z,59.80
2023-01-30T03:42:39.224Z,58.70
2023-01-30T03:43:43.110Z,55.10
2023-01-30T03:44:46.805Z,52.60
2023-01-30T03:45:50.549Z,48.60
2023-01-30T03:46:54.359Z,51.50
2023-01-30T03:47:57.896Z,62.40
2023-01-30T03:49:01.694Z,66.30
2023-01-30T03:50:05.970Z,57.90
2023-01-30T03:51:12.488Z,60.10
2023-01-30T03:52:16.212Z,43.00
2023-01-30T03:53:19.838Z,46.30
2023-01-30T03:54:23.561Z,65.90
2023-01-30T03:55:27.314Z,51.20
2023-01-30T03:56:31.115Z,52.70
2023-01-30T03:57:34.920Z,55.60
2023-01-30T03:58:38.807Z,56.30
2023-01-30T03:59:52.696Z,66.70
2023-01-30T04:00:57.572Z,61.20
2023-01-30T04:02:02.456Z,63.80
2023-01-30T04:03:07.548Z,53.30
2023-01-30T04:04:11.429Z,55.00
2023-01-30T04:05:16.019Z,49.10
2023-01-30T04:06:23.912Z,58.70
2023-01-30T04:07:30.063Z,49.20
2023-01-30T04:08:33.931Z,56.30
2023-01-30T04:09:37.670Z,64.40
2023-01-30T04:10:41.496Z,58.90
2023-01-30T04:11:45.255Z,61.00
2023-01-30T04:12:49.566Z,56.40
2023-01-30T04:13:53.344Z,51.80
2023-01-30T04:14:57.067Z,55.40
2023-01-30T04:16:23.113Z,60.80
2023-01-30T04:18:01.582Z,51.90
2023-01-30T04:19:23.637Z,40.90
2023-01-30T04:20:27.583Z,61.40
2023-01-30T04:21:32.733Z,54.70
2023-01-30T04:22:36.631Z,50.70
2023-01-30T04:23:41.345Z,36.80
2023-01-30T04:24:45.104Z,63.40
2023-01-30T04:25:48.960Z,56.90
2023-01-30T04:26:54.029Z,55.00
2023-01-30T04:27:57.728Z,49.20
2023-01-30T04:29:05.238Z,58.40
2023-01-30T04:30:09.910Z,65.30
2023-01-30T04:31:15.257Z,64.30
2023-01-30T04:32:47.973Z,54.00
2023-01-30T04:33:51.713Z,61.40
2023-01-30T04:34:55.618Z,55.70
2023-01-30T04:36:00.179Z,54.40
2023-01-30T04:37:04.197Z,47.20
2023-01-30T04:38:08.011Z,67.00
2023-01-30T04:39:12.093Z,66.20
2023-01-30T04:40:16.913Z,65.40
2023-01-30T04:41:21.484Z,60.60
2023-01-30T04:42:25.375Z,71.30
2023-01-30T04:44:01.668Z,55.80
2023-01-30T04:45:44.448Z,60.30
2023-01-30T04:46:48.831Z,55.80
2023-01-30T04:47:52.552Z,54.30
2023-01-30T04:48:56.481Z,76.30
2023-01-30T04:50:00.459Z,60.10
2023-01-30T04:51:04.780Z,56.10
2023-01-30T04:52:08.792Z,61.30
2023-01-30T04:53:16.316Z,64.60
2023-01-30T04:55:25.116Z,53.60
2023-01-30T04:56:29.866Z,56.60
2023-01-30T04:57:33.594Z,54.00
2023-01-30T04:58:37.325Z,49.30
2023-01-30T04:59:41.047Z,63.70
2023-01-30T05:00:46.595Z,58.40
2023-01-30T05:01:50.541Z,46.10
2023-01-30T05:02:55.961Z,43.90
2023-01-30T05:04:00.101Z,55.50
2023-01-30T05:05:03.843Z,66.60
2023-01-30T05:06:07.958Z,66.50
2023-01-30T05:07:11.991Z,61.80
2023-01-30T05:08:17.776Z,70.90
2023-01-30T05:09:21.394Z,30.20
2023-01-30T05:10:27.348Z,63.40
2023-01-30T05:11:32.177Z,50.30
2023-01-30T05:12:36.125Z,66.90
2023-01-30T05:13:39.878Z,78.30
2023-01-30T05:14:43.536Z,75.60
2023-01-30T05:15:47.213Z,68.40
2023-01-30T05:16:50.861Z,72.20
2023-01-30T05:17:54.528Z,67.10
2023-01-30T05:18:58.252Z,68.40
2023-01-30T05:20:01.948Z,62.40
2023-01-30T05:21:07.888Z,68.60
2023-01-30T05:22:12.274Z,70.00
2023-01-30T05:24:20.451Z,69.80
2023-01-30T05:25:24.159Z,61.40
2023-01-30T05:26:27.874Z,56.10
2023-01-30T05:27:31.501Z,55.80
2023-01-30T05:28:35.751Z,69.90
2023-01-30T05:29:39.416Z,84.40
2023-01-30T05:30:44.201Z,71.10
2023-01-30T05:31:48.951Z,65.60
2023-01-30T05:32:52.622Z,71.60
2023-01-30T05:33:56.471Z,69.10
2023-01-30T05:35:00.359Z,65.20
2023-01-30T05:36:04.087Z,73.70
2023-01-30T05:37:07.807Z,66.90
2023-01-30T05:38:12.077Z,73.80
2023-01-30T05:39:16.036Z,77.20
2023-01-30T05:40:19.753Z,58.90
2023-01-30T05:41:23.413Z,64.50
2023-01-30T05:42:27.099Z,79.20
2023-01-30T05:43:31.907Z,58.20
2023-01-30T05:44:35.555Z,64.60
2023-01-30T05:45:39.275Z,58.40
2023-01-30T05:46:42.949Z,63.90
2023-01-30T05:47:51.843Z,64.10
2023-01-30T05:48:55.373Z,54.70
2023-01-30T05:49:59.004Z,54.50
2023-01-30T05:51:03.490Z,74.10
2023-01-30T05:52:08.535Z,54.70
2023-01-30T05:54:17.148Z,51.30
2023-01-30T05:55:20.973Z,63.80
2023-01-30T05:56:25.011Z,63.60
2023-01-30T05:57:28.685Z,53.10
2023-01-30T05:58:33.099Z,51.90
2023-01-30T05:59:36.850Z,49.40
2023-01-30T06:00:40.485Z,61.30
2023-01-30T06:01:44.485Z,60.10
2023-01-30T06:02:48.220Z,50.00
2023-01-30T06:03:52.833Z,27.90
2023-01-30T06:04:56.724Z,63.60
2023-01-30T06:06:02.553Z,68.80
2023-01-30T06:07:06.497Z,57.30
2023-01-30T06:08:10.124Z,57.20
2023-01-30T06:09:13.754Z,66.00
2023-01-30T06:10:17.742Z,69.50
2023-01-30T06:11:22.094Z,55.10
2023-01-30T06:12:25.848Z,42.20
2023-01-30T06:13:32.384Z,43.60
2023-01-30T06:14:36.014Z,44.70
2023-01-30T06:15:39.833Z,56.70
2023-01-30T06:16:43.792Z,51.70
2023-01-30T06:17:47.595Z,67.70
2023-01-30T06:18:51.287Z,71.10
2023-01-30T06:19:55.496Z,52.70
2023-01-30T06:20:59.098Z,58.20
2023-01-30T06:22:03.145Z,62.40
2023-01-30T06:23:06.866Z,54.00
2023-01-30T06:24:10.520Z,38.20
2023-01-30T06:25:14.556Z,66.80
2023-01-30T06:26:18.256Z,54.30
2023-01-30T06:27:21.952Z,46.60
2023-01-30T06:28:26.230Z,64.00
2023-01-30T06:29:29.800Z,55.80
2023-01-30T06:30:33.444Z,52.60
2023-01-30T06:31:37.216Z,52.40
2023-01-30T06:32:42.828Z,47.20
2023-01-30T06:33:47.035Z,55.10
2023-01-30T06:34:50.631Z,58.40
2023-01-30T06:35:54.625Z,44.30
2023-01-30T06:36:58.257Z,58.30
2023-01-30T06:38:02.662Z,58.60
2023-01-30T06:39:06.320Z,62.50
2023-01-30T06:40:11.068Z,37.60
2023-01-30T06:41:14.771Z,52.70
2023-01-30T06:42:18.459Z,64.40
2023-01-30T06:43:22.151Z,70.20
2023-01-30T06:44:25.831Z,60.50
2023-01-30T06:45:29.675Z,54.10
2023-01-30T06:46:33.384Z,59.00
2023-01-30T06:47:51.720Z,62.10
2023-01-30T06:48:55.522Z,62.50
2023-01-30T06:50:00.254Z,38.30
2023-01-30T06:53:11.242Z,52.00
2023-01-30T06:54:15.063Z,58.20
2023-01-30T06:55:21.655Z,57.40
2023-01-30T06:56:26.345Z,57.10
2023-01-30T06:57:30.039Z,50.40
2023-01-30T06:58:33.724Z,55.90
2023-01-30T06:59:37.452Z,58.50
2023-01-30T07:00:42.548Z,53.00
2023-01-30T07:01:46.371Z,50.10
2023-01-30T07:02:49.980Z,63.10
2023-01-30T07:03:54.029Z,53.00
2023-01-30T07:05:00.106Z,54.50
2023-01-30T07:06:03.979Z,49.20
2023-01-30T07:07:07.668Z,51.30
2023-01-30T07:08:12.247Z,40.90
2023-01-30T07:10:19.604Z,44.60
2023-01-30T07:11:23.294Z,48.50
2023-01-30T07:12:28.143Z,55.60
2023-01-30T07:13:31.736Z,52.50
2023-01-30T07:14:35.348Z,55.30
2023-01-30T07:15:39.504Z,44.60
2023-01-30T07:16:43.194Z,47.40
2023-01-30T07:17:46.857Z,46.40
2023-01-30T07:18:50.506Z,49.60
2023-01-30T07:19:54.229Z,50.20
2023-01-30T07:20:57.833Z,49.40
2023-01-30T07:22:03.229Z,39.90
2023-01-30T07:23:07.246Z,28.30
2023-01-30T07:24:10.897Z,45.50
2023-01-30T07:25:14.576Z,49.50
2023-01-30T07:26:18.403Z,43.90
2023-01-30T07:27:22.269Z,50.00
2023-01-30T07:28:25.982Z,44.00
2023-01-30T07:29:29.783Z,49.00
2023-01-30T07:30:36.067Z,50.80
2023-01-30T07:31:39.877Z,50.80
2023-01-30T07:32:43.723Z,46.10
2023-01-30T07:33:47.405Z,54.80
2023-01-30T07:34:51.047Z,46.70
2023-01-30T07:35:55.354Z,46.70
2023-01-30T07:36:59.095Z,49.30
2023-01-30T07:38:04.538Z,44.30
2023-01-30T07:39:09.465Z,33.70
2023-01-30T07:40:13.589Z,47.50
2023-01-30T07:41:17.482Z,44.30
2023-01-30T07:42:21.135Z,55.30
2023-01-30T07:43:24.849Z,26.40
2023-01-30T07:44:28.720Z,50.80
2023-01-30T07:45:49.008Z,50.40
2023-01-30T07:46:53.040Z,49.60
2023-01-30T07:47:56.725Z,34.00
2023-01-30T07:49:04.570Z,38.60
2023-01-30T07:50:08.817Z,48.10
2023-01-30T07:51:12.605Z,38.60
2023-01-30T07:52:16.352Z,42.00
2023-01-30T07:53:20.048Z,51.30
2023-01-30T07:54:23.730Z,43.90
2023-01-30T07:55:27.511Z,43.50
2023-01-30T07:56:31.288Z,39.50
2023-01-30T07:57:35.051Z,48.00
2023-01-30T07:58:38.796Z,35.70
2023-01-30T07:59:42.913Z,34.40
2023-01-30T08:00:46.661Z,47.10
2023-01-30T08:01:50.458Z,37.00
2023-01-30T08:02:54.103Z,44.40
2023-01-30T08:03:58.079Z,35.00
2023-01-30T08:05:02.247Z,48.30
2023-01-30T08:06:07.342Z,43.00
2023-01-30T08:07:11.047Z,45.90
2023-01-30T08:08:14.965Z,37.70
2023-01-30T08:09:18.932Z,40.80
2023-01-30T08:10:22.671Z,50.30
2023-01-30T08:11:26.351Z,54.60
2023-01-30T08:12:30.207Z,37.40
2023-01-30T08:13:35.426Z,34.30
2023-01-30T08:14:39.586Z,45.30
2023-01-30T08:15:43.680Z,48.40
2023-01-30T08:16:47.554Z,48.50
2023-01-30T08:17:55.168Z,42.60
2023-01-30T08:18:59.269Z,47.90
2023-01-30T08:20:04.750Z,45.80
2023-01-30T08:21:08.474Z,32.00
2023-01-30T08:22:13.562Z,41.30
2023-01-30T08:23:17.315Z,34.70
2023-01-30T08:24:21.132Z,45.30
2023-01-30T08:25:25.076Z,30.90
2023-01-30T08:26:28.893Z,44.30
2023-01-30T08:27:32.596Z,29.30
2023-01-30T08:28:36.529Z,36.00
2023-01-30T08:29:40.505Z,38.30
2023-01-30T08:30:44.341Z,45.40
2023-01-30T08:31:48.312Z,49.10
2023-01-30T08:32:52.147Z,41.50
2023-01-30T08:33:55.820Z,44.10
2023-01-30T08:34:59.586Z,38.50
2023-01-30T08:36:03.540Z,33.90
2023-01-30T08:37:07.445Z,43.30
2023-01-30T08:38:11.625Z,46.50
2023-01-30T08:39:15.266Z,103.00
2023-01-30T08:40:19.339Z,48.40
2023-01-30T08:41:23.119Z,47.00
2023-01-30T08:42:27.058Z,44.10
2023-01-30T08:43:30.734Z,41.10
2023-01-30T08:44:34.357Z,45.70
2023-01-30T08:45:38.038Z,44.10
2023-01-30T08:46:41.773Z,37.00
2023-01-30T08:47:45.602Z,50.10
2023-01-30T08:48:50.422Z,49.00
2023-01-30T08:49:54.242Z,47.00
2023-01-30T08:50:57.836Z,47.40
2023-01-30T08:52:01.481Z,37.90
2023-01-30T08:53:07.438Z,40.30
2023-01-30T08:54:11.096Z,49.00
2023-01-30T08:55:14.823Z,43.20
2023-01-30T08:56:19.260Z,54.40
2023-01-30T08:57:22.872Z,31.80
2023-01-30T08:58:26.557Z,33.70
2023-01-30T08:59:30.866Z,39.20
2023-01-30T09:00:34.636Z,32.70
2023-01-30T09:01:38.512Z,39.70
2023-01-30T09:02:42.504Z,37.80
2023-01-30T09:03:46.385Z,41.80
2023-01-30T09:04:50.078Z,38.10
2023-01-30T09:05:56.016Z,39.80
2023-01-30T09:06:59.838Z,38.00
2023-01-30T09:08:03.468Z,32.80
2023-01-30T09:09:07.177Z,45.60
2023-01-30T09:10:11.165Z,32.30
2023-01-30T09:11:14.923Z,37.70
2023-01-30T09:12:18.643Z,34.40
2023-01-30T09:13:22.558Z,34.70
2023-01-30T09:14:26.311Z,36.60
2023-01-30T09:15:29.967Z,28.50
2023-01-30T09:16:33.664Z,35.60
2023-01-30T09:17:38.236Z,33.40
2023-01-30T09:18:43.729Z,34.90
2023-01-30T09:19:47.408Z,35.90
2023-01-30T09:20:52.798Z,34.00
2023-01-30T09:21:57.590Z,33.80
2023-01-30T09:23:01.869Z,28.30
2023-01-30T09:24:06.170Z,31.30
2023-01-30T09:25:09.922Z,34.60
2023-01-30T09:26:13.793Z,31.70
2023-01-30T09:27:17.761Z,27.00
2023-01-30T09:28:21.460Z,29.60
2023-01-30T09:29:26.243Z,26.20
2023-01-30T09:30:30.158Z,26.90
2023-01-30T09:31:34.010Z,32.30
2023-01-30T09:32:37.738Z,27.30
2023-01-30T09:33:41.325Z,20.80
2023-01-30T09:34:44.938Z,26.30
2023-01-30T09:35:49.499Z,28.40
2023-01-30T09:38:01.517Z,21.80
2023-01-30T09:40:16.563Z,15.80
2023-01-30T09:41:34.527Z,18.50
2023-01-30T09:43:06.053Z,15.30
2023-01-30T09:44:32.843Z,19.60
2023-01-30T09:45:43.314Z,14.30
2023-01-30T09:47:26.377Z,20.10
2023-01-30T09:48:37.464Z,29.70
2023-01-30T09:49:54.775Z,14.70
2023-01-30T09:51:05.968Z,17.00
2023-01-30T09:52:25.107Z,20.50
2023-01-30T09:53:40.129Z,19.50
2023-01-30T09:54:45.926Z,19.30
2023-01-30T09:55:50.041Z,23.00
2023-01-30T09:56:59.744Z,21.30
2023-01-30T09:58:03.492Z,20.90
2023-01-30T09:59:07.265Z,20.30
2023-01-30T10:00:33.989Z,21.50
2023-01-30T10:01:52.826Z,18.80
2023-01-30T10:03:05.113Z,14.70
2023-01-30T10:04:33.310Z,15.80
2023-01-30T10:05:49.403Z,13.00
2023-01-30T10:07:16.848Z,19.00
2023-01-30T10:09:00.578Z,18.30
2023-01-30T10:10:12.631Z,13.90
2023-01-30T10:11:23.724Z,13.90
2023-01-30T10:12:33.730Z,16.30
2023-01-30T10:14:02.591Z,16.00
2023-01-30T10:15:25.008Z,17.70
2023-01-30T10:16:54.296Z,14.80
2023-01-30T10:18:03.909Z,10.60
2023-01-30T10:19:36.676Z,13.90
2023-01-30T10:20:48.283Z,12.30
2023-01-30T10:22:06.095Z,14.20
2023-01-30T10:23:34.354Z,13.70
2023-01-30T10:25:02.341Z,22.60
2023-01-30T10:26:13.272Z,8.20
2023-01-30T10:27:18.280Z,13.80
2023-01-30T10:28:37.561Z,15.90
2023-01-30T10:29:47.571Z,12.80
2023-01-30T10:30:54.295Z,10.30
2023-01-30T10:32:22.698Z,11.80
2023-01-30T10:33:36.796Z,11.30
2023-01-30T10:34:46.483Z,11.10
2023-01-30T10:36:01.339Z,14.10
2023-01-30T10:37:20.102Z,11.20
2023-01-30T10:39:06.595Z,9.70
2023-01-30T10:40:22.561Z,10.50
2023-01-30T10:41:33.126Z,9.20
2023-01-30T10:42:55.026Z,9.90
2023-01-30T10:44:04.346Z,9.70
2023-01-30T10:45:20.449Z,9.70
2023-01-30T10:46:46.745Z,11.90
2023-01-30T10:47:58.466Z,9.50
2023-01-30T10:49:19.796Z,10.10
2023-01-30T10:50:44.572Z,11.00
2023-01-30T10:51:59.394Z,10.30
2023-01-30T10:53:32.181Z,11.30
2023-01-30T10:54:43.181Z,11.60
2023-01-30T10:56:03.827Z,10.40
2023-01-30T10:57:23.347Z,10.80
2023-01-30T10:58:39.197Z,6.70
2023-01-30T11:00:02.810Z,9.10
2023-01-30T11:01:31.149Z,7.30
2023-01-30T11:02:49.618Z,9.20
2023-01-30T11:04:30.232Z,8.60
2023-01-30T11:05:56.355Z,11.80
2023-01-30T11:07:02.125Z,8.70
2023-01-30T11:08:18.096Z,11.10
2023-01-30T11:09:23.772Z,10.80
2023-01-30T11:10:28.360Z,10.50
2023-01-30T11:11:43.821Z,10.70
2023-01-30T11:12:47.941Z,11.30
2023-01-30T11:14:01.567Z,14.60
2023-01-30T11:15:05.837Z,8.70
2023-01-30T11:16:10.481Z,8.50
2023-01-30T11:17:18.313Z,7.80
2023-01-30T11:19:56.483Z,11.20
2023-01-30T11:21:07.707Z,8.40
2023-01-30T11:22:14.919Z,9.10
2023-01-30T11:23:31.774Z,7.80
2023-01-30T11:24:44.488Z,8.30
2023-01-30T11:26:10.144Z,6.20
2023-01-30T11:27:17.964Z,7.80
2023-01-30T11:28:21.890Z,7.70
2023-01-30T11:29:31.477Z,9.40
2023-01-30T11:30:36.613Z,7.50
2023-01-30T11:31:41.916Z,10.80
2023-01-30T11:32:49.201Z,11.10
2023-01-30T11:34:01.684Z,9.20
2023-01-30T11:35:08.252Z,6.30
2023-01-30T11:36:28.492Z,7.20
2023-01-30T11:37:33.500Z,9.80
2023-01-30T11:38:40.480Z,7.60
2023-01-30T11:39:50.586Z,8.10
2023-01-30T11:41:09.375Z,7.20
2023-01-30T11:42:13.067Z,9.00
2023-01-30T11:43:16.922Z,8.30
2023-01-30T11:44:27.941Z,8.40
2023-01-30T11:45:37.947Z,8.00
2023-01-30T11:46:43.162Z,10.20
2023-01-30T11:47:57.684Z,9.30
2023-01-30T11:49:46.407Z,8.60
2023-01-30T11:50:46.847Z,6.00
2023-01-30T11:53:02.989Z,6.50
2023-01-30T11:54:13.183Z,7.20
2023-01-30T11:55:20.037Z,5.30
2023-01-30T11:56:41.154Z,5.70
2023-01-30T11:57:50.637Z,8.70
2023-01-30T11:59:00.008Z,5.90
2023-01-30T12:00:04.300Z,6.20
2023-01-30T12:01:16.197Z,9.50
2023-01-30T12:02:25.090Z,6.80
2023-01-30T12:03:30.985Z,6.40
2023-01-30T12:05:42.612Z,4.60
2023-01-30T12:06:46.467Z,5.10
2023-01-30T12:07:51.784Z,6.10
2023-01-30T12:08:56.028Z,5.20
2023-01-30T12:09:59.726Z,6.20
2023-01-30T12:11:07.269Z,8.70
2023-01-30T12:12:29.119Z,3.80
2023-01-30T12:13:35.760Z,7.00
2023-01-30T12:14:46.064Z,7.10
2023-01-30T12:16:16.190Z,5.40
2023-01-30T12:17:57.730Z,6.10
2023-01-30T12:19:22.560Z,7.40
2023-01-30T12:20:44.742Z,6.90
2023-01-30T12:22:07.129Z,8.50
2023-01-30T12:23:25.717Z,6.50
2023-01-30T12:24:38.377Z,7.20
2023-01-30T12:25:51.928Z,7.70
2023-01-30T12:27:01.744Z,6.30
2023-01-30T12:28:20.215Z,11.90
2023-01-30T12:29:32.917Z,9.30
2023-01-30T12:30:42.529Z,6.10
2023-01-30T12:33:15.487Z,7.60
2023-01-30T12:34:21.600Z,8.20
2023-01-30T12:35:54.718Z,6.30
2023-01-30T12:37:36.471Z,6.90
2023-01-30T12:38:56.214Z,6.60
2023-01-30T12:40:34.724Z,6.70
2023-01-30T12:41:59.329Z,6.40
2023-01-30T12:43:17.776Z,7.30
2023-01-30T12:44:30.873Z,11.40
2023-01-30T12:45:41.078Z,5.70
2023-01-30T12:46:50.748Z,6.20
2023-01-30T12:48:13.326Z,5.70
2023-01-30T12:50:01.784Z,7.20
2023-01-30T12:51:12.932Z,8.90
2023-01-30T12:52:49.324Z,6.50
2023-01-30T12:54:03.474Z,6.00
2023-01-30T12:55:33.333Z,12.10
2023-01-30T12:58:03.736Z,8.30
2023-01-30T12:59:18.351Z,6.60
2023-01-30T13:00:45.224Z,7.30
2023-01-30T13:02:10.586Z,8.50
2023-01-30T13:03:56.846Z,11.10
2023-01-30T13:05:21.491Z,6.60
2023-01-30T13:06:44.737Z,9.30
2023-01-30T13:07:50.895Z,8.00
2023-01-30T13:09:32.336Z,9.00
2023-01-30T13:10:51.697Z,9.70
2023-01-30T13:12:24.866Z,9.60
2023-01-30T13:13:42.964Z,9.40
2023-01-30T13:15:16.744Z,11.10
2023-01-30T13:16:36.566Z,9.80
2023-01-30T13:18:15.573Z,8.30
2023-01-30T13:19:40.854Z,8.50
2023-01-30T13:20:51.086Z,12.60
2023-01-30T13:22:27.401Z,11.00
2023-01-30T13:23:37.031Z,8.30
2023-01-30T13:25:12.810Z,7.80
2023-01-30T13:26:24.336Z,8.80
2023-01-30T13:27:32.642Z,8.90
2023-01-30T13:28:48.791Z,14.50
2023-01-30T13:29:53.926Z,13.10
2023-01-30T13:30:58.889Z,6.00
2023-01-30T13:32:06.547Z,8.50
2023-01-30T13:33:14.981Z,6.70
2023-01-30T13:34:35.126Z,7.10
2023-01-30T13:36:02.376Z,12.40
2023-01-30T13:37:11.106Z,7.80
2023-01-30T13:38:20.816Z,11.80
2023-01-30T13:39:42.322Z,13.50
2023-01-30T13:40:49.519Z,7.10
2023-01-30T13:41:59.516Z,13.00
2023-01-30T13:43:33.473Z,10.50
2023-01-30T13:44:42.310Z,11.60
2023-01-30T13:45:49.040Z,11.70
2023-01-30T13:46:54.807Z,7.90
2023-01-30T13:48:23.260Z,12.00
2023-01-30T13:49:36.968Z,9.30
2023-01-30T13:50:58.590Z,9.70
2023-01-30T13:52:33.592Z,10.30
2023-01-30T13:53:37.755Z,8.00
2023-01-30T13:55:08.272Z,12.40
2023-01-30T13:56:44.426Z,9.30
2023-01-30T13:58:00.920Z,11.10
2023-01-30T13:59:30.707Z,11.90
2023-01-30T14:00:36.177Z,8.70
2023-01-30T14:01:59.165Z,8.70
2023-01-30T14:03:05.616Z,11.80
2023-01-30T14:04:44.929Z,11.10
2023-01-30T14:05:51.770Z,12.10
2023-01-30T14:07:27.953Z,8.70
2023-01-30T14:08:46.987Z,6.90
2023-01-30T14:10:08.988Z,8.00
2023-01-30T14:11:41.486Z,14.30
2023-01-30T14:12:52.734Z,10.90
2023-01-30T14:14:19.429Z,10.40
2023-01-30T14:15:25.554Z,7.30
2023-01-30T14:16:47.881Z,12.50
2023-01-30T14:17:57.753Z,9.00
2023-01-30T14:19:29.261Z,10.30
2023-01-30T14:20:35.158Z,9.00
2023-01-30T14:21:39.651Z,14.30
2023-01-30T14:22:56.795Z,49.90
2023-01-30T14:24:02.359Z,9.40
2023-01-30T14:25:25.173Z,9.60
2023-01-30T14:26:47.247Z,6.70
2023-01-30T14:28:17.181Z,8.90
2023-01-30T14:29:39.234Z,7.40
2023-01-30T14:30:52.141Z,9.60
2023-01-30T14:31:56.131Z,12.50
2023-01-30T14:33:03.004Z,8.20
2023-01-30T14:34:42.309Z,12.30
2023-01-30T14:36:06.164Z,13.60
2023-01-30T14:37:43.628Z,9.50
2023-01-30T14:38:56.948Z,7.40
2023-01-30T14:40:01.598Z,9.30
2023-01-30T14:41:05.320Z,10.40
2023-01-30T14:42:20.149Z,6.50
2023-01-30T14:43:42.252Z,9.80
2023-01-30T14:45:15.838Z,11.70
2023-01-30T14:46:19.913Z,9.00
2023-01-30T14:47:33.383Z,12.00
2023-01-30T14:48:50.906Z,11.60
2023-01-30T14:49:55.233Z,6.50
2023-01-30T14:52:38.059Z,8.80
2023-01-30T14:54:02.531Z,9.70
2023-01-30T14:55:15.719Z,12.30
2023-01-30T14:56:54.106Z,13.20
2023-01-30T14:58:01.676Z,11.30
2023-01-30T14:59:28.098Z,13.70
2023-01-30T15:00:36.064Z,7.10
2023-01-30T15:02:01.128Z,8.60
2023-01-30T15:03:16.672Z,16.30
2023-01-30T15:04:21.253Z,13.90
2023-01-30T15:05:34.236Z,11.50
2023-01-30T15:06:38.155Z,9.80
2023-01-30T15:07:47.312Z,11.90
2023-01-30T15:08:52.283Z,8.40
2023-01-30T15:10:43.884Z,6.40
2023-01-30T15:12:01.442Z,9.00
2023-01-30T15:13:32.310Z,11.10
2023-01-30T15:14:54.034Z,8.80
2023-01-30T15:16:21.425Z,11.40
2023-01-30T15:17:38.365Z,11.80
2023-01-30T15:18:51.895Z,10.60
2023-01-30T15:20:30.793Z,12.10
2023-01-30T15:21:49.446Z,10.60
2023-01-30T15:23:35.649Z,14.00
2023-01-30T15:24:51.137Z,10.20
2023-01-30T15:26:24.921Z,14.30
2023-01-30T15:27:38.975Z,17.40
2023-01-30T15:29:02.405Z,25.40
2023-01-30T15:30:16.830Z,15.10
2023-01-30T15:31:23.058Z,14.10